sensor_id;sensor_type;location;lat;lon;timestamp;pressure;altitude;pressure_sealevel;temperature;humidity
56518;BME280;42419;48.760;2.322;2022-09-25T00:00:53;100704.09;;;22.46;44.67
56518;BME280;42419;48.760;2.322;2022-09-25T00:03:21;100708.69;;;22.44;44.49
56518;BME280;42419;48.760;2.322;2022-09-25T00:05:47;100717.50;;;22.46;44.69
56518;BME280;42419;48.760;2.322;2022-09-25T00:08:14;100702.03;;;22.34;44.55
56518;BME280;42419;48.760;2.322;2022-09-25T00:10:48;100717.56;;;22.45;44.17
56518;BME280;42419;48.760;2.322;2022-09-25T00:13:19;100727.47;;;22.44;44.37
56518;BME280;42419;48.760;2.322;2022-09-25T00:15:46;100721.22;;;22.44;44.56
56518;BME280;42419;48.760;2.322;2022-09-25T00:18:12;100724.84;;;22.42;44.30
56518;BME280;42419;48.760;2.322;2022-09-25T00:20:37;100716.09;;;22.39;44.40
56518;BME280;42419;48.760;2.322;2022-09-25T00:23:03;100725.78;;;22.41;44.02
56518;BME280;42419;48.760;2.322;2022-09-25T00:25:28;100734.72;;;22.42;44.17
56518;BME280;42419;48.760;2.322;2022-09-25T00:27:53;100730.28;;;22.41;44.00
56518;BME280;42419;48.760;2.322;2022-09-25T00:30:19;100709.16;;;22.35;44.19
56518;BME280;42419;48.760;2.322;2022-09-25T00:32:45;100725.78;;;22.41;44.13
56518;BME280;42419;48.760;2.322;2022-09-25T00:35:10;100724.91;;;22.41;43.90
56518;BME280;42419;48.760;2.322;2022-09-25T00:37:36;100704.06;;;22.29;43.79
56518;BME280;42419;48.760;2.322;2022-09-25T00:40:05;100725.00;;;22.39;43.66
56518;BME280;42419;48.760;2.322;2022-09-25T00:42:31;100719.66;;;22.39;43.79
56518;BME280;42419;48.760;2.322;2022-09-25T00:45:05;100723.16;;;22.40;43.92
56518;BME280;42419;48.760;2.322;2022-09-25T00:50:28;100725.09;;;22.38;43.84
56518;BME280;42419;48.760;2.322;2022-09-25T00:52:58;100719.72;;;22.38;43.66
56518;BME280;42419;48.760;2.322;2022-09-25T00:55:29;100702.19;;;22.31;43.64
56518;BME280;42419;48.760;2.322;2022-09-25T00:57:55;100716.16;;;22.37;43.85
56518;BME280;42419;48.760;2.322;2022-09-25T01:00:21;100711.72;;;22.36;43.60
56518;BME280;42419;48.760;2.322;2022-09-25T01:02:51;100722.41;;;22.38;43.54
56518;BME280;42419;48.760;2.322;2022-09-25T01:05:20;100701.22;;;22.32;43.31
56518;BME280;42419;48.760;2.322;2022-09-25T01:07:48;100714.34;;;22.38;43.80
56518;BME280;42419;48.760;2.322;2022-09-25T01:10:15;100709.91;;;22.37;43.68
56518;BME280;42419;48.760;2.322;2022-09-25T01:12:44;100703.69;;;22.36;43.36
56518;BME280;42419;48.760;2.322;2022-09-25T01:15:12;100711.72;;;22.36;43.27
56518;BME280;42419;48.760;2.322;2022-09-25T01:18:01;100709.06;;;22.36;43.52
56518;BME280;42419;48.760;2.322;2022-09-25T01:31:40;100719.94;;;22.33;43.10
56518;BME280;42419;48.760;2.322;2022-09-25T01:34:15;100656.66;;;21.93;43.31
56518;BME280;42419;48.760;2.322;2022-09-25T01:36:52;100720.81;;;22.34;43.44
56518;BME280;42419;48.760;2.322;2022-09-25T01:39:34;100712.94;;;22.31;43.28
56518;BME280;42419;48.760;2.322;2022-09-25T01:42:18;100716.38;;;22.33;43.11
56518;BME280;42419;48.760;2.322;2022-09-25T01:44:52;100708.34;;;22.33;43.24
56518;BME280;42419;48.760;2.322;2022-09-25T01:47:24;100699.50;;;22.31;42.97
56518;BME280;42419;48.760;2.322;2022-09-25T01:49:54;100708.34;;;22.33;42.94
56518;BME280;42419;48.760;2.322;2022-09-25T01:52:34;100702.97;;;22.33;43.14
56518;BME280;42419;48.760;2.322;2022-09-25T01:55:32;100707.56;;;22.31;42.92
56518;BME280;42419;48.760;2.322;2022-09-25T02:00:40;100703.13;;;22.30;43.11
56518;BME280;42419;48.760;2.322;2022-09-25T02:03:19;100706.59;;;22.32;43.01
56518;BME280;42419;48.760;2.322;2022-09-25T02:06:00;100692.69;;;22.24;42.78
56518;BME280;42419;48.760;2.322;2022-09-25T02:08:33;100707.56;;;22.31;42.99
56518;BME280;42419;48.760;2.322;2022-09-25T02:11:02;100702.19;;;22.31;42.92
56518;BME280;42419;48.760;2.322;2022-09-25T02:13:36;100703.03;;;22.31;43.04
56518;BME280;42419;48.760;2.322;2022-09-25T02:16:16;100703.03;;;22.31;42.88
56518;BME280;42419;48.760;2.322;2022-09-25T02:18:44;100705.72;;;22.31;43.15
56518;BME280;42419;48.760;2.322;2022-09-25T02:26:35;100699.66;;;22.28;42.83
56518;BME280;42419;48.760;2.322;2022-09-25T02:29:03;100702.25;;;22.29;42.78
56518;BME280;42419;48.760;2.322;2022-09-25T02:31:35;100705.72;;;22.31;42.63
56518;BME280;42419;48.760;2.322;2022-09-25T02:34:04;100702.19;;;22.31;42.61
56518;BME280;42419;48.760;2.322;2022-09-25T02:36:30;100702.25;;;22.29;42.63
56518;BME280;42419;48.760;2.322;2022-09-25T02:38:58;100715.59;;;22.31;42.95
56518;BME280;42419;48.760;2.322;2022-09-25T02:45:14;100704.88;;;22.31;42.46
56518;BME280;42419;48.760;2.322;2022-09-25T02:52:28;100707.63;;;22.29;43.15
56518;BME280;42419;48.760;2.322;2022-09-25T02:55:24;100714.75;;;22.30;42.43
56518;BME280;42419;48.760;2.322;2022-09-25T02:57:58;100712.13;;;22.29;42.64
56518;BME280;42419;48.760;2.322;2022-09-25T03:00:26;100712.13;;;22.29;42.86
56518;BME280;42419;48.760;2.322;2022-09-25T03:02:54;100722.84;;;22.29;42.68
56518;BME280;42419;48.760;2.322;2022-09-25T03:05:22;100723.78;;;22.28;42.62
56518;BME280;42419;48.760;2.322;2022-09-25T03:07:49;100721.03;;;22.29;42.68
56518;BME280;42419;48.760;2.322;2022-09-25T03:10:35;100724.66;;;22.28;42.70
56518;BME280;42419;48.760;2.322;2022-09-25T03:13:19;100723.00;;;22.26;42.63
56518;BME280;42419;48.760;2.322;2022-09-25T03:15:50;100722.19;;;22.24;42.69
56518;BME280;42419;48.760;2.322;2022-09-25T03:18:17;100734.50;;;22.28;42.52
56518;BME280;42419;48.760;2.322;2022-09-25T03:20:43;100737.19;;;22.28;42.67
56518;BME280;42419;48.760;2.322;2022-09-25T03:23:08;100730.97;;;22.27;42.59
56518;BME280;42419;48.760;2.322;2022-09-25T03:25:36;100733.56;;;22.29;42.43
56518;BME280;42419;48.760;2.322;2022-09-25T03:28:01;100706.50;;;22.16;42.71
56518;BME280;42419;48.760;2.322;2022-09-25T03:30:27;100737.13;;;22.29;42.54
56518;BME280;42419;48.760;2.322;2022-09-25T03:32:53;100714.44;;;22.18;42.17
56518;BME280;42419;48.760;2.322;2022-09-25T03:35:18;100736.25;;;22.29;42.64
56518;BME280;42419;48.760;2.322;2022-09-25T03:37:43;100737.19;;;22.28;42.48
56518;BME280;42419;48.760;2.322;2022-09-25T03:40:09;100742.56;;;22.28;42.47
56518;BME280;42419;48.760;2.322;2022-09-25T03:42:35;100746.13;;;22.28;42.40
56518;BME280;42419;48.760;2.322;2022-09-25T03:45:01;100744.47;;;22.26;42.56
56518;BME280;42419;48.760;2.322;2022-09-25T03:47:26;100751.47;;;22.28;42.16
56518;BME280;42419;48.760;2.322;2022-09-25T03:49:51;100744.31;;;22.29;42.20
56518;BME280;42419;48.760;2.322;2022-09-25T03:52:17;100753.28;;;22.28;42.30
56518;BME280;42419;48.760;2.322;2022-09-25T03:54:42;100753.28;;;22.28;42.43
56518;BME280;42419;48.760;2.322;2022-09-25T03:57:08;100747.06;;;22.27;42.48
56518;BME280;42419;48.760;2.322;2022-09-25T03:59:33;100755.09;;;22.27;42.30
56518;BME280;42419;48.760;2.322;2022-09-25T04:01:58;100747.94;;;22.28;42.54
56518;BME280;42419;48.760;2.322;2022-09-25T04:04:24;100750.69;;;22.26;42.08
56518;BME280;42419;48.760;2.322;2022-09-25T04:06:49;100745.56;;;22.22;42.19
56518;BME280;42419;48.760;2.322;2022-09-25T04:09:14;100751.53;;;22.27;42.38
56518;BME280;42419;48.760;2.322;2022-09-25T04:11:40;100749.81;;;22.26;42.21
56518;BME280;42419;48.760;2.322;2022-09-25T04:14:05;100756.06;;;22.26;42.28
56518;BME280;42419;48.760;2.322;2022-09-25T04:16:31;100751.53;;;22.27;42.18
56518;BME280;42419;48.760;2.322;2022-09-25T04:18:56;100756.91;;;22.27;42.17
56518;BME280;42419;48.760;2.322;2022-09-25T04:21:21;100762.28;;;22.27;42.45
56518;BME280;42419;48.760;2.322;2022-09-25T04:23:47;100756.06;;;22.26;42.12
56518;BME280;42419;48.760;2.322;2022-09-25T04:26:33;100754.31;;;22.25;42.30
56518;BME280;42419;48.760;2.322;2022-09-25T04:28:59;100754.31;;;22.25;42.15
56518;BME280;42419;48.760;2.322;2022-09-25T04:31:30;100744.59;;;22.23;41.97
56518;BME280;42419;48.760;2.322;2022-09-25T04:33:56;100755.19;;;22.26;42.83
56518;BME280;42419;48.760;2.322;2022-09-25T04:36:21;100754.31;;;22.25;42.39
56518;BME280;42419;48.760;2.322;2022-09-25T04:38:47;100744.03;;;22.16;42.33
56518;BME280;42419;48.760;2.322;2022-09-25T04:41:13;100759.69;;;22.25;42.29
56518;BME280;42419;48.760;2.322;2022-09-25T04:43:40;100737.00;;;22.14;42.03
56518;BME280;42419;48.760;2.322;2022-09-25T04:46:09;100739.53;;;22.17;42.17
56518;BME280;42419;48.760;2.322;2022-09-25T04:48:35;100768.59;;;22.26;42.25
56518;BME280;42419;48.760;2.322;2022-09-25T04:51:00;100718.25;;;21.95;41.99
56518;BME280;42419;48.760;2.322;2022-09-25T04:53:27;100744.91;;;22.17;41.91
56518;BME280;42419;48.760;2.322;2022-09-25T04:55:58;100746.78;;;22.15;42.10
56518;BME280;42419;48.760;2.322;2022-09-25T04:58:24;100772.22;;;22.25;41.94
56518;BME280;42419;48.760;2.322;2022-09-25T05:00:49;100712.44;;;21.85;41.90
56518;BME280;42419;48.760;2.322;2022-09-25T05:03:14;100774.91;;;22.25;42.19
56518;BME280;42419;48.760;2.322;2022-09-25T05:05:40;100779.41;;;22.24;42.12
56518;BME280;42419;48.760;2.322;2022-09-25T05:08:05;100783.81;;;22.25;42.06
56518;BME280;42419;48.760;2.322;2022-09-25T05:10:32;100782.06;;;22.24;42.02
56518;BME280;42419;48.760;2.322;2022-09-25T05:13:03;100783.88;;;22.24;41.90
56518;BME280;42419;48.760;2.322;2022-09-25T05:15:30;100773.59;;;22.15;42.17
56518;BME280;42419;48.760;2.322;2022-09-25T05:20:29;100790.19;;;22.23;41.93
56518;BME280;42419;48.760;2.322;2022-09-25T05:22:55;100788.38;;;22.23;41.82
56518;BME280;42419;48.760;2.322;2022-09-25T05:25:21;100789.25;;;22.24;42.16
56518;BME280;42419;48.760;2.322;2022-09-25T05:27:47;100779.78;;;22.17;41.84
56518;BME280;42419;48.760;2.322;2022-09-25T05:30:15;100783.88;;;22.24;41.98
56518;BME280;42419;48.760;2.322;2022-09-25T05:32:46;100788.53;;;22.20;41.64
56518;BME280;42419;48.760;2.322;2022-09-25T05:35:13;100789.31;;;22.22;41.98
56518;BME280;42419;48.760;2.322;2022-09-25T05:37:39;100792.16;;;22.19;41.91
56518;BME280;42419;48.760;2.322;2022-09-25T05:40:04;100799.97;;;22.24;41.91
56518;BME280;42419;48.760;2.322;2022-09-25T05:42:30;100794.63;;;22.24;41.97
56518;BME280;42419;48.760;2.322;2022-09-25T05:44:56;100798.22;;;22.23;41.98
56518;BME280;42419;48.760;2.322;2022-09-25T05:47:21;100798.22;;;22.23;42.15
56518;BME280;42419;48.760;2.322;2022-09-25T05:49:46;100798.22;;;22.23;42.25
56518;BME280;42419;48.760;2.322;2022-09-25T05:52:12;100784.31;;;22.15;41.94
56518;BME280;42419;48.760;2.322;2022-09-25T05:54:37;100803.59;;;22.23;41.62
56518;BME280;42419;48.760;2.322;2022-09-25T05:57:02;100800.03;;;22.22;41.98
56518;BME280;42419;48.760;2.322;2022-09-25T05:59:27;100800.03;;;22.22;41.45
56518;BME280;42419;48.760;2.322;2022-09-25T06:01:53;100799.09;;;22.23;42.38
56518;BME280;42419;48.760;2.322;2022-09-25T06:04:19;100805.34;;;22.24;41.93
56518;BME280;42419;48.760;2.322;2022-09-25T06:06:44;100802.66;;;22.24;41.93
56518;BME280;42419;48.760;2.322;2022-09-25T06:09:09;100805.41;;;22.22;41.91
56518;BME280;42419;48.760;2.322;2022-09-25T06:11:35;100812.47;;;22.25;41.94
56518;BME280;42419;48.760;2.322;2022-09-25T06:14:00;100813.38;;;22.24;41.87
56518;BME280;42419;48.760;2.322;2022-09-25T06:16:25;100812.50;;;22.23;41.47
56518;BME280;42419;48.760;2.322;2022-09-25T06:18:51;100821.44;;;22.24;41.77
56518;BME280;42419;48.760;2.322;2022-09-25T06:21:17;100823.25;;;22.23;41.82
56518;BME280;42419;48.760;2.322;2022-09-25T06:23:42;100810.16;;;22.17;41.90
56518;BME280;42419;48.760;2.322;2022-09-25T06:26:09;100821.66;;;22.19;41.65
56518;BME280;42419;48.760;2.322;2022-09-25T06:28:35;100833.03;;;22.24;41.86
56518;BME280;42419;48.760;2.322;2022-09-25T06:31:01;100832.16;;;22.24;41.65
56518;BME280;42419;48.760;2.322;2022-09-25T06:33:27;100820.78;;;22.19;41.79
56518;BME280;42419;48.760;2.322;2022-09-25T06:35:52;100833.03;;;22.24;41.73
56518;BME280;42419;48.760;2.322;2022-09-25T06:38:17;100833.91;;;22.25;41.78
56518;BME280;42419;48.760;2.322;2022-09-25T06:40:43;100826.97;;;22.21;41.75
56518;BME280;42419;48.760;2.322;2022-09-25T06:43:10;100817.22;;;22.18;41.85
56518;BME280;42419;48.760;2.322;2022-09-25T06:45:35;100836.75;;;22.22;41.97
56518;BME280;42419;48.760;2.322;2022-09-25T06:48:05;100837.53;;;22.24;41.82
56518;BME280;42419;48.760;2.322;2022-09-25T06:50:36;100826.16;;;22.19;41.55
56518;BME280;42419;48.760;2.322;2022-09-25T06:53:03;100832.16;;;22.24;41.81
56518;BME280;42419;48.760;2.322;2022-09-25T06:55:29;100847.31;;;22.25;41.43
56518;BME280;42419;48.760;2.322;2022-09-25T06:57:57;100836.00;;;22.18;41.73
56518;BME280;42419;48.760;2.322;2022-09-25T07:00:23;100828.91;;;22.17;41.59
56518;BME280;42419;48.760;2.322;2022-09-25T07:02:48;100784.41;;;21.94;41.48
56518;BME280;42419;48.760;2.322;2022-09-25T07:05:32;100836.59;;;22.25;41.51
56518;BME280;42419;48.760;2.322;2022-09-25T07:07:58;100838.34;;;22.26;41.72
56518;BME280;42419;48.760;2.322;2022-09-25T07:10:24;100834.63;;;22.28;42.10
56518;BME280;42419;48.760;2.322;2022-09-25T07:12:49;100817.88;;;22.23;41.46
56518;BME280;42419;48.760;2.322;2022-09-25T07:15:15;100834.41;;;22.33;41.33
56518;BME280;42419;48.760;2.322;2022-09-25T07:17:41;100828.28;;;22.31;41.46
56518;BME280;42419;48.760;2.322;2022-09-25T07:20:08;100835.13;;;22.36;41.52
56518;BME280;42419;48.760;2.322;2022-09-25T07:22:34;100838.69;;;22.37;41.08
56518;BME280;42419;48.760;2.322;2022-09-25T07:24:59;100841.31;;;22.38;41.35
56518;BME280;42419;48.760;2.322;2022-09-25T07:27:25;100839.41;;;22.40;41.43
56518;BME280;42419;48.760;2.322;2022-09-25T07:29:50;100822.91;;;22.31;41.47
56518;BME280;42419;48.760;2.322;2022-09-25T07:32:16;100850.88;;;22.44;41.15
56518;BME280;42419;48.760;2.322;2022-09-25T07:34:41;100848.09;;;22.46;41.40
56518;BME280;42419;48.760;2.322;2022-09-25T07:37:06;100841.88;;;22.45;41.28
56518;BME280;42419;48.760;2.322;2022-09-25T07:39:32;100845.31;;;22.49;41.36
56518;BME280;42419;48.760;2.322;2022-09-25T07:41:57;100852.38;;;22.50;41.33
56518;BME280;42419;48.760;2.322;2022-09-25T07:44:23;100840.28;;;22.41;41.48
56518;BME280;42419;48.760;2.322;2022-09-25T07:46:48;100854.94;;;22.53;41.47
56518;BME280;42419;48.760;2.322;2022-09-25T07:49:13;100858.44;;;22.55;41.73
56518;BME280;42419;48.760;2.322;2022-09-25T07:51:39;100842.47;;;22.52;41.75
56518;BME280;42419;48.760;2.322;2022-09-25T07:54:04;100852.06;;;22.57;41.36
56518;BME280;42419;48.760;2.322;2022-09-25T07:56:29;100859.09;;;22.60;41.72
56518;BME280;42419;48.760;2.322;2022-09-25T07:58:55;100859.91;;;22.62;41.69
56518;BME280;42419;48.760;2.322;2022-09-25T08:01:20;100864.25;;;22.64;41.96
56518;BME280;42419;48.760;2.322;2022-09-25T08:03:45;100857.00;;;22.66;41.92
56518;BME280;42419;48.760;2.322;2022-09-25T08:06:12;100865.66;;;22.71;41.83
56518;BME280;42419;48.760;2.322;2022-09-25T08:08:41;100864.59;;;22.75;41.83
56518;BME280;42419;48.760;2.322;2022-09-25T08:11:10;100870.69;;;22.79;41.77
56518;BME280;42419;48.760;2.322;2022-09-25T08:13:37;100885.69;;;22.83;41.95
56518;BME280;42419;48.760;2.322;2022-09-25T08:16:18;100873.00;;;22.87;41.40
56518;BME280;42419;48.760;2.322;2022-09-25T08:18:46;100881.84;;;22.89;41.45
56518;BME280;42419;48.760;2.322;2022-09-25T08:21:13;100880.81;;;22.91;40.40
56518;BME280;42419;48.760;2.322;2022-09-25T08:23:40;100877.97;;;22.94;39.96
56518;BME280;42419;48.760;2.322;2022-09-25T08:26:06;100868.97;;;22.95;39.79
56518;BME280;42419;48.760;2.322;2022-09-25T08:28:32;100870.72;;;22.96;40.06
56518;BME280;42419;48.760;2.322;2022-09-25T08:30:58;100871.44;;;23.00;39.81
56518;BME280;42419;48.760;2.322;2022-09-25T08:33:24;100876.50;;;23.06;40.11
56518;BME280;42419;48.760;2.322;2022-09-25T08:35:57;100869.41;;;23.05;39.82
56518;BME280;42419;48.760;2.322;2022-09-25T08:38:24;100885.94;;;23.14;40.22
56518;BME280;42419;48.760;2.322;2022-09-25T08:40:58;100885.63;;;23.20;40.02
56518;BME280;42419;48.760;2.322;2022-09-25T08:43:25;100881.78;;;23.26;39.59
56518;BME280;42419;48.760;2.322;2022-09-25T08:45:53;100893.09;;;23.33;39.75
56518;BME280;42419;48.760;2.322;2022-09-25T08:48:54;100884.69;;;23.39;40.17
56518;BME280;42419;48.760;2.322;2022-09-25T08:51:39;100890.66;;;23.45;40.75
56518;BME280;42419;48.760;2.322;2022-09-25T08:54:06;100888.50;;;23.52;40.47
56518;BME280;42419;48.760;2.322;2022-09-25T08:56:34;100853.19;;;23.42;40.94
56518;BME280;42419;48.760;2.322;2022-09-25T08:59:16;100880.84;;;23.61;39.11
56518;BME280;42419;48.760;2.322;2022-09-25T09:01:50;100886.94;;;23.65;39.98
56518;BME280;42419;48.760;2.322;2022-09-25T09:07:02;100876.53;;;23.74;39.48
56518;BME280;42419;48.760;2.322;2022-09-25T09:09:35;100878.28;;;23.76;39.29
56518;BME280;42419;48.760;2.322;2022-09-25T09:12:18;100887.88;;;23.81;39.04
56518;BME280;42419;48.760;2.322;2022-09-25T09:14:48;100882.31;;;23.84;39.14
56518;BME280;42419;48.760;2.322;2022-09-25T09:17:17;100877.09;;;23.81;38.89
56518;BME280;42419;48.760;2.322;2022-09-25T09:19:50;100877.66;;;23.88;38.23
56518;BME280;42419;48.760;2.322;2022-09-25T09:22:24;100879.34;;;23.90;38.46
56518;BME280;42419;48.760;2.322;2022-09-25T09:30:09;100887.88;;;23.98;38.04
56518;BME280;42419;48.760;2.322;2022-09-25T09:41:15;100865.19;;;23.87;37.04
56518;BME280;42419;48.760;2.322;2022-09-25T09:46:35;100894.44;;;23.93;37.27
56518;BME280;42419;48.760;2.322;2022-09-25T09:49:27;100868.97;;;23.83;37.20
56518;BME280;42419;48.760;2.322;2022-09-25T09:59:49;100875.53;;;23.77;36.89
56518;BME280;42419;48.760;2.322;2022-09-25T10:02:31;100867.84;;;23.69;37.24
56518;BME280;42419;48.760;2.322;2022-09-25T10:05:01;100873.00;;;23.74;37.21
56518;BME280;42419;48.760;2.322;2022-09-25T10:07:30;100873.84;;;23.74;37.71
56518;BME280;42419;48.760;2.322;2022-09-25T10:09:57;100886.53;;;23.72;37.28
56518;BME280;42419;48.760;2.322;2022-09-25T10:12:31;100879.47;;;23.70;36.72
56518;BME280;42419;48.760;2.322;2022-09-25T10:15:01;100875.16;;;23.67;36.46
56518;BME280;42419;48.760;2.322;2022-09-25T10:17:29;100819.50;;;23.35;35.89
56518;BME280;42419;48.760;2.322;2022-09-25T10:20:14;100875.38;;;23.63;35.54
56518;BME280;42419;48.760;2.322;2022-09-25T10:22:43;100873.75;;;23.60;35.26
56518;BME280;42419;48.760;2.322;2022-09-25T10:25:10;100863.13;;;23.57;34.88
56518;BME280;42419;48.760;2.322;2022-09-25T10:27:36;100870.41;;;23.55;35.00
56518;BME280;42419;48.760;2.322;2022-09-25T10:32:41;100876.03;;;23.51;34.73
56518;BME280;42419;48.760;2.322;2022-09-25T10:35:28;100867.22;;;23.47;33.49
56518;BME280;42419;48.760;2.322;2022-09-25T10:37:59;100858.56;;;23.42;34.29
56518;BME280;42419;48.760;2.322;2022-09-25T10:43:16;100862.38;;;23.38;33.68
56518;BME280;42419;48.760;2.322;2022-09-25T10:45:43;100857.06;;;23.37;34.43
56518;BME280;42419;48.760;2.322;2022-09-25T10:48:33;100852.22;;;23.26;35.04
56518;BME280;42419;48.760;2.322;2022-09-25T10:51:17;100863.53;;;23.33;36.44
56518;BME280;42419;48.760;2.322;2022-09-25T10:53:46;100860.91;;;23.31;36.42
56518;BME280;42419;48.760;2.322;2022-09-25T10:56:23;100837.34;;;23.19;36.16
56518;BME280;42419;48.760;2.322;2022-09-25T10:58:58;100860.69;;;23.36;36.61
56518;BME280;42419;48.760;2.322;2022-09-25T11:01:34;100859.75;;;23.37;36.82
56518;BME280;42419;48.760;2.322;2022-09-25T11:04:04;100857.13;;;23.35;37.31
56518;BME280;42419;48.760;2.322;2022-09-25T11:06:33;100856.19;;;23.36;38.81
56518;BME280;42419;48.760;2.322;2022-09-25T11:09:07;100858.06;;;23.34;38.45
56518;BME280;42419;48.760;2.322;2022-09-25T11:11:37;100866.06;;;23.36;39.07
56518;BME280;42419;48.760;2.322;2022-09-25T11:14:07;100864.25;;;23.36;39.18
56518;BME280;42419;48.760;2.322;2022-09-25T11:16:53;100841.34;;;23.29;38.80
56518;BME280;42419;48.760;2.322;2022-09-25T11:19:36;100848.75;;;23.58;38.66
56518;BME280;42419;48.760;2.322;2022-09-25T11:22:09;100862.09;;;23.77;37.56
56518;BME280;42419;48.760;2.322;2022-09-25T11:27:16;100862.66;;;24.32;35.82
56518;BME280;42419;48.760;2.322;2022-09-25T11:32:36;100867.50;;;24.74;35.19
56518;BME280;42419;48.760;2.322;2022-09-25T11:40:47;100875.59;;;25.21;34.49
56518;BME280;42419;48.760;2.322;2022-09-25T11:43:41;100867.13;;;25.27;33.97
56518;BME280;42419;48.760;2.322;2022-09-25T11:46:41;100874.91;;;25.47;33.89
56518;BME280;42419;48.760;2.322;2022-09-25T11:49:21;100867.88;;;25.59;33.65
56518;BME280;42419;48.760;2.322;2022-09-25T11:52:17;100875.09;;;25.59;33.89
56518;BME280;42419;48.760;2.322;2022-09-25T12:06:48;100860.84;;;26.01;33.01
56518;BME280;42419;48.760;2.322;2022-09-25T12:20:35;100850.59;;;26.20;31.95
56518;BME280;42419;48.760;2.322;2022-09-25T12:30:58;100842.31;;;25.80;33.20
56518;BME280;42419;48.760;2.322;2022-09-25T12:36:40;100810.34;;;25.74;32.14
56518;BME280;42419;48.760;2.322;2022-09-25T12:39:24;100838.75;;;25.94;32.35
56518;BME280;42419;48.760;2.322;2022-09-25T12:44:49;100830.28;;;26.00;31.97
56518;BME280;42419;48.760;2.322;2022-09-25T12:50:13;100831.94;;;25.74;32.25
56518;BME280;42419;48.760;2.322;2022-09-25T12:52:50;100820.31;;;25.58;32.60
56518;BME280;42419;48.760;2.322;2022-09-25T12:55:21;100827.13;;;25.49;32.76
56518;BME280;42419;48.760;2.322;2022-09-25T13:00:29;100822.31;;;25.55;32.87
56518;BME280;42419;48.760;2.322;2022-09-25T13:03:10;100825.53;;;25.61;32.54
56518;BME280;42419;48.760;2.322;2022-09-25T13:05:42;100795.44;;;25.53;32.38
56518;BME280;42419;48.760;2.322;2022-09-25T13:08:21;100816.94;;;25.69;32.60
56518;BME280;42419;48.760;2.322;2022-09-25T13:11:35;100819.47;;;25.72;32.12
56518;BME280;42419;48.760;2.322;2022-09-25T13:14:04;100812.19;;;25.74;32.88
56518;BME280;42419;48.760;2.322;2022-09-25T13:16:33;100804.97;;;25.74;32.54
56518;BME280;42419;48.760;2.322;2022-09-25T13:21:50;100809.00;;;25.81;32.14
56518;BME280;42419;48.760;2.322;2022-09-25T13:24:22;100800.97;;;25.80;31.99
56518;BME280;42419;48.760;2.322;2022-09-25T13:26:52;100810.25;;;25.76;31.82
56518;BME280;42419;48.760;2.322;2022-09-25T13:29:26;100811.41;;;25.72;32.04
56518;BME280;42419;48.760;2.322;2022-09-25T13:32:12;100804.16;;;25.72;31.83
56518;BME280;42419;48.760;2.322;2022-09-25T13:34:40;100792.06;;;25.49;31.85
56518;BME280;42419;48.760;2.322;2022-09-25T13:37:10;100799.09;;;25.38;32.15
56518;BME280;42419;48.760;2.322;2022-09-25T13:39:43;100797.81;;;25.29;31.93
56518;BME280;42419;48.760;2.322;2022-09-25T13:47:53;100789.63;;;25.17;31.69
56518;BME280;42419;48.760;2.322;2022-09-25T13:50:36;100798.38;;;25.20;31.52
56518;BME280;42419;48.760;2.322;2022-09-25T13:58:30;100790.56;;;25.00;32.43
56518;BME280;42419;48.760;2.322;2022-09-25T14:00:59;100784.00;;;24.90;31.78
56518;BME280;42419;48.760;2.322;2022-09-25T14:05:57;100779.16;;;24.81;31.91
56518;BME280;42419;48.760;2.322;2022-09-25T14:08:24;100781.41;;;24.73;31.27
56518;BME280;42419;48.760;2.322;2022-09-25T14:10:54;100773.19;;;24.60;32.05
56518;BME280;42419;48.760;2.322;2022-09-25T14:13:21;100780.59;;;24.56;31.44
56518;BME280;42419;48.760;2.322;2022-09-25T14:15:50;100772.69;;;24.53;31.40
56518;BME280;42419;48.760;2.322;2022-09-25T14:18:26;100760.25;;;24.35;31.84
56518;BME280;42419;48.760;2.322;2022-09-25T14:20:58;100766.50;;;24.36;31.58
56518;BME280;42419;48.760;2.322;2022-09-25T14:23:26;100699.41;;;23.86;31.45
56518;BME280;42419;48.760;2.322;2022-09-25T14:26:01;100776.41;;;24.35;31.49
56518;BME280;42419;48.760;2.322;2022-09-25T14:28:31;100759.22;;;24.22;31.48
56518;BME280;42419;48.760;2.322;2022-09-25T14:34:00;100776.94;;;24.26;31.51
56518;BME280;42419;48.760;2.322;2022-09-25T14:42:40;100768.94;;;24.09;31.43
56518;BME280;42419;48.760;2.322;2022-09-25T14:48:06;100766.03;;;23.96;31.35
56518;BME280;42419;48.760;2.322;2022-09-25T14:50:36;100762.66;;;23.93;31.56
56518;BME280;42419;48.760;2.322;2022-09-25T14:53:05;100770.97;;;23.88;31.89
56518;BME280;42419;48.760;2.322;2022-09-25T14:55:37;100768.50;;;23.84;31.58
56518;BME280;42419;48.760;2.322;2022-09-25T14:58:07;100766.66;;;23.86;31.36
56518;BME280;42419;48.760;2.322;2022-09-25T15:00:34;100766.47;;;23.89;32.02
56518;BME280;42419;48.760;2.322;2022-09-25T15:03:10;100770.81;;;23.91;31.89
56518;BME280;42419;48.760;2.322;2022-09-25T15:05:37;100761.88;;;23.91;32.30
56518;BME280;42419;48.760;2.322;2022-09-25T15:08:22;100755.47;;;23.93;31.93
56518;BME280;42419;48.760;2.322;2022-09-25T15:10:59;100749.13;;;23.94;32.31
56518;BME280;42419;48.760;2.322;2022-09-25T15:13:25;100754.25;;;23.99;32.31
56518;BME280;42419;48.760;2.322;2022-09-25T15:15:57;100749.75;;;23.99;31.79
56518;BME280;42419;48.760;2.322;2022-09-25T15:18:44;100756.75;;;24.02;32.21
56518;BME280;42419;48.760;2.322;2022-09-25T15:21:13;100754.06;;;24.02;32.47
56518;BME280;42419;48.760;2.322;2022-09-25T15:23:41;100751.56;;;23.99;31.89
56518;BME280;42419;48.760;2.322;2022-09-25T15:26:12;100753.13;;;24.03;31.67
56518;BME280;42419;48.760;2.322;2022-09-25T15:28:40;100739.88;;;24.00;32.01
56518;BME280;42419;48.760;2.322;2022-09-25T15:31:06;100721.81;;;23.86;31.49
56518;BME280;42419;48.760;2.322;2022-09-25T15:33:34;100743.41;;;24.00;31.94